Time;durP1;ratioP1;P1;durP2;ratioP2;P2;SDS_P1;SDS_P2;PMS_P1;PMS_P2;Temp;Humidity;BMP_temperature;BMP_pressure;BME280_temperature;BME280_humidity;BME280_pressure;Samples;Min_cycle;Max_cycle;Signal;HPM_P1;HPM_P2
2021/12/21 00:01:09;;;;;;;23.02;10.70;;;;;;;-1.14;99.54;102717.00;6217044;23;20398;-62
2021/12/21 00:03:35;;;;;;;23.45;10.63;;;;;;;-1.18;99.69;102712.47;6217638;23;20004;-64
2021/12/21 00:06:00;;;;;;;26.77;10.73;;;;;;;-1.15;99.98;102714.34;6217108;23;20009;-62
2021/12/21 00:08:25;;;;;;;23.80;11.38;;;;;;;-1.20;99.77;102706.34;6218117;23;20028;-63
2021/12/21 00:10:51;;;;;;;28.75;11.32;;;;;;;-1.21;99.52;102708.84;6217513;23;20111;-64
2021/12/21 00:16:01;;;;;;;24.77;11.00;;;;;;;-1.26;100.00;102705.06;6227643;23;20020;-64
2021/12/21 00:18:37;;;;;;;27.20;10.85;;;;;;;-1.30;99.81;102706.56;6217512;23;20079;-62
2021/12/21 00:21:13;;;;;;;20.70;10.25;;;;;;;-1.31;100.00;102711.59;6217737;23;20124;-65
2021/12/21 00:26:33;;;;;;;26.50;11.43;;;;;;;-1.33;100.00;102708.03;6227663;23;20016;-65
2021/12/21 00:29:01;;;;;;;31.33;11.10;;;;;;;-1.42;99.92;102693.81;6214304;23;20009;-63
2021/12/21 00:31:28;;;;;;;22.38;10.48;;;;;;;-1.35;99.94;102707.94;6217700;23;20000;-64
2021/12/21 00:33:54;;;;;;;27.55;11.48;;;;;;;-1.41;99.88;102704.97;6217429;23;20079;-63
2021/12/21 00:36:23;;;;;;;27.33;11.25;;;;;;;-1.39;100.00;102699.94;6217026;23;20368;-64
2021/12/21 00:38:50;;;;;;;24.50;10.68;;;;;;;-1.40;99.91;102696.50;6217625;23;20005;-62
2021/12/21 00:41:17;;;;;;;29.92;10.80;;;;;;;-1.43;99.86;102706.56;6217189;23;20039;-62
2021/12/21 00:43:43;;;;;;;23.80;10.70;;;;;;;-1.46;100.00;102696.97;6217417;23;20375;-64
2021/12/21 00:46:08;;;;;;;24.27;10.70;;;;;;;-1.50;99.80;102696.66;6217354;23;20047;-64
2021/12/21 00:48:35;;;;;;;23.92;11.35;;;;;;;-1.49;99.83;102688.19;6217616;23;20005;-64
2021/12/21 00:51:04;;;;;;;25.42;10.18;;;;;;;-1.56;99.71;102686.03;6217368;23;20008;-62
2021/12/21 00:53:29;;;;;;;27.00;10.52;;;;;;;-1.54;100.00;102694.69;6217215;23;20019;-64
2021/12/21 00:55:55;;;;;;;27.17;10.32;;;;;;;-1.53;100.00;102693.91;6217441;23;20032;-63
2021/12/21 00:58:21;;;;;;;27.55;10.05;;;;;;;-1.54;99.93;102702.38;6217350;23;20055;-62
2021/12/21 01:00:47;;;;;;;25.48;10.02;;;;;;;-1.57;99.81;102697.06;6217308;23;20005;-62
2021/12/21 01:03:16;;;;;;;22.98;10.55;;;;;;;-1.67;99.92;102686.97;6217276;23;20019;-63
2021/12/21 01:05:50;;;;;;;25.75;9.95;;;;;;;-1.71;100.00;102691.00;6217356;23;20294;-64
2021/12/21 01:08:20;;;;;;;26.38;10.82;;;;;;;-1.78;100.00;102689.75;6217132;23;20008;-64
2021/12/21 01:10:54;;;;;;;26.73;11.07;;;;;;;-1.88;100.00;102689.91;6219234;23;20404;-62
2021/12/21 01:16:12;;;;;;;24.55;10.48;;;;;;;-1.86;100.00;102688.34;6229193;23;20050;-63
2021/12/21 01:18:53;;;;;;;32.95;10.60;;;;;;;-1.83;100.00;102697.91;6218841;23;20085;-63
2021/12/21 01:21:22;;;;;;;30.40;11.43;;;;;;;-1.84;100.00;102697.03;6219408;23;20012;-63
2021/12/21 01:26:29;;;;;;;21.63;10.60;;;;;;;-1.83;100.00;102698.81;6229088;23;20058;-62
2021/12/21 01:29:06;;;;;;;24.50;11.27;;;;;;;-1.85;100.00;102691.78;6218842;23;20255;-63
2021/12/21 01:34:29;;;;;;;25.95;10.80;;;;;;;-1.90;100.00;102688.91;6229050;23;20012;-62
2021/12/21 01:37:11;;;;;;;28.98;11.23;;;;;;;-1.91;100.00;102682.03;6218969;23;20028;-63
2021/12/21 01:39:58;;;;;;;27.55;10.82;;;;;;;-1.88;100.00;102689.91;6218641;23;20058;-62
2021/12/21 01:50:26;;;;;;;25.92;10.48;;;;;;;-1.93;100.00;102675.91;6218170;23;20051;-63
2021/12/21 01:52:51;;;;;;;22.42;10.80;;;;;;;-1.99;100.00;102679.72;6218893;23;20295;-63
2021/12/21 01:55:17;;;;;;;28.55;11.57;;;;;;;-2.01;100.00;102677.06;6218653;23;20015;-64
2021/12/21 01:57:42;;;;;;;27.15;11.25;;;;;;;-2.03;100.00;102676.06;6218663;23;20004;-63
2021/12/21 02:00:08;;;;;;;22.80;10.82;;;;;;;-2.03;100.00;102670.94;6218137;23;20055;-62
2021/12/21 02:02:34;;;;;;;27.83;11.63;;;;;;;-2.02;99.99;102680.41;6218059;23;20009;-63
2021/12/21 02:04:59;;;;;;;23.25;10.90;;;;;;;-2.07;100.00;102666.38;6218351;23;20087;-62
2021/12/21 02:07:25;;;;;;;24.77;11.50;;;;;;;-2.09;100.00;102667.09;6218876;23;20000;-64
2021/12/21 02:09:50;;;;;;;31.05;11.50;;;;;;;-2.08;100.00;102672.34;6218770;23;20015;-63
2021/12/21 02:12:18;;;;;;;25.77;10.60;;;;;;;-2.14;100.00;102656.53;6217947;23;20310;-62
2021/12/21 02:14:52;;;;;;;28.17;11.27;;;;;;;-2.17;100.00;102656.31;6218325;23;20008;-63
2021/12/21 02:20:20;;;;;;;26.65;11.32;;;;;;;-2.20;100.00;102668.91;6228498;23;20048;-62
2021/12/21 02:22:54;;;;;;;27.52;11.00;;;;;;;-2.22;100.00;102652.53;6218503;23;20267;-63
2021/12/21 02:27:55;;;;;;;25.55;11.32;;;;;;;-2.19;100.00;102663.00;6228438;23;20083;-63
2021/12/21 02:30:20;;;;;;;25.70;11.02;;;;;;;-2.19;100.00;102663.91;6218522;23;20023;-64
2021/12/21 02:32:46;;;;;;;27.52;11.45;;;;;;;-2.30;99.84;102652.03;6218621;23;20419;-63
2021/12/21 02:35:11;;;;;;;30.65;11.32;;;;;;;-2.23;100.00;102661.91;6218383;23;20001;-64
2021/12/21 02:37:36;;;;;;;25.75;11.00;;;;;;;-2.20;100.00;102668.91;6218212;23;20338;-62
2021/12/21 02:40:04;;;;;;;27.80;10.85;;;;;;;-2.20;100.00;102664.69;6217426;23;20001;-61
2021/12/21 02:42:30;;;;;;;22.35;10.57;;;;;;;-2.31;100.00;102654.50;6218171;23;20040;-62
2021/12/21 02:44:57;;;;;;;25.60;10.95;;;;;;;-2.36;100.00;102643.94;6218279;23;20294;-62
2021/12/21 02:47:23;;;;;;;30.02;11.05;;;;;;;-2.34;100.00;102654.28;6217770;23;20082;-64
2021/12/21 02:49:48;;;;;;;32.00;11.07;;;;;;;-2.35;100.00;102660.19;6217956;23;20016;-63
2021/12/21 02:52:13;;;;;;;28.52;11.93;;;;;;;-2.34;100.00;102659.41;6216299;23;20005;-63
2021/12/21 02:54:39;;;;;;;25.73;11.10;;;;;;;-2.41;100.00;102649.50;6217967;23;20398;-63
2021/12/21 02:57:04;;;;;;;33.95;12.27;;;;;;;-2.36;100.00;102648.16;6218122;23;20004;-63
2021/12/21 02:59:30;;;;;;;27.83;11.35;;;;;;;-2.39;100.00;102640.25;6218305;23;20306;-61
2021/12/21 03:01:55;;;;;;;23.95;10.63;;;;;;;-2.34;100.00;102644.03;6217881;23;20094;-63
2021/12/21 03:04:21;;;;;;;25.30;11.27;;;;;;;-2.35;100.00;102644.81;6217425;23;20471;-64
2021/12/21 03:07:25;;;;;;;27.67;11.43;;;;;;;-2.36;100.00;102637.91;6218091;23;20008;-62
2021/12/21 03:09:54;;;;;;;24.58;10.52;;;;;;;-2.37;100.00;102643.81;6217295;23;20028;-62
2021/12/21 03:14:45;;;;;;;28.02;11.15;;;;;;;-2.45;100.00;102648.44;6227929;23;20009;-63
2021/12/21 03:17:11;;;;;;;29.85;11.82;;;;;;;-2.42;100.00;102650.34;6217794;23;20012;-61
2021/12/21 03:19:37;;;;;;;32.17;11.27;;;;;;;-2.42;100.00;102642.66;6218011;23;20019;-62
2021/12/21 03:22:04;;;;;;;23.80;10.85;;;;;;;-2.43;100.00;102648.56;6217762;23;20008;-62
2021/12/21 03:24:29;;;;;;;31.52;11.45;;;;;;;-2.46;100.00;102634.75;6217385;23;20391;-63
2021/12/21 03:26:55;;;;;;;23.25;11.00;;;;;;;-2.44;100.00;102633.97;6217836;23;20068;-62
2021/12/21 03:29:21;;;;;;;25.58;11.27;;;;;;;-2.42;100.00;102648.63;6217352;23;20302;-64
2021/12/21 03:31:46;;;;;;;29.60;11.13;;;;;;;-2.48;100.00;102636.31;6217036;23;20001;-63
2021/12/21 03:34:11;;;;;;;29.27;12.68;;;;;;;-2.49;99.94;102646.44;6217495;23;20346;-63
2021/12/21 03:36:38;;;;;;;28.35;11.48;;;;;;;-2.56;100.00;102641.69;6217369;23;20009;-62
2021/12/21 03:39:09;;;;;;;26.77;11.40;;;;;;;-2.58;100.00;102636.44;6217610;23;20011;-63
2021/12/21 03:41:39;;;;;;;31.53;12.20;;;;;;;-2.57;100.00;102633.09;6217845;23;20012;-63
2021/12/21 03:44:04;;;;;;;30.15;11.70;;;;;;;-2.60;100.00;102629.47;6217589;23;20040;-62
2021/12/21 03:46:32;;;;;;;25.88;10.98;;;;;;;-2.60;100.00;102630.34;6217656;23;20078;-64
2021/12/21 03:48:58;;;;;;;31.02;12.38;;;;;;;-2.64;100.00;102627.47;6217201;23;20034;-62
2021/12/21 03:51:23;;;;;;;29.42;11.90;;;;;;;-2.68;100.00;102625.47;6217681;23;20005;-63
2021/12/21 03:53:50;;;;;;;30.17;13.00;;;;;;;-2.64;100.00;102641.19;6217839;23;20342;-61
2021/12/21 03:58:51;;;;;;;35.58;12.82;;;;;;;-2.67;100.00;102640.06;6217713;23;20012;-62
2021/12/21 04:01:16;;;;;;;32.00;12.40;;;;;;;-2.70;100.00;102627.03;6217667;23;20084;-62
2021/12/21 04:03:42;;;;;;;30.35;11.70;;;;;;;-2.71;100.00;102628.72;6217492;23;20009;-65
2021/12/21 04:06:07;;;;;;;31.05;11.90;;;;;;;-2.72;100.00;102626.03;6218057;23;20008;-63
2021/12/21 04:08:36;;;;;;;33.58;12.80;;;;;;;-2.72;100.00;102633.72;6217394;23;20024;-64
2021/12/21 04:11:03;;;;;;;32.92;12.63;;;;;;;-2.78;100.00;102629.09;6217670;23;20012;-64
2021/12/21 04:13:29;;;;;;;32.88;12.52;;;;;;;-2.79;100.00;102629.88;6217533;23;20036;-64
2021/12/21 04:15:55;;;;;;;32.50;12.30;;;;;;;-2.83;100.00;102626.22;6217593;23;20071;-64
2021/12/21 04:18:23;;;;;;;31.38;12.50;;;;;;;-2.84;100.00;102627.00;6217357;23;20005;-62
2021/12/21 04:20:48;;;;;;;27.02;11.48;;;;;;;-2.83;100.00;102626.22;6217270;23;20084;-62
2021/12/21 04:23:14;;;;;;;28.65;12.75;;;;;;;-2.81;100.00;102623.75;6217456;23;20005;-63
2021/12/21 04:25:39;;;;;;;33.22;12.00;;;;;;;-2.82;100.00;102621.97;6217443;23;20364;-65
2021/12/21 04:28:05;;;;;;;36.42;13.00;;;;;;;-2.78;100.00;102630.78;6217013;23;20083;-63
2021/12/21 04:30:30;;;;;;;32.15;12.60;;;;;;;-2.80;100.00;102620.41;6217264;23;20271;-62
2021/12/21 04:32:55;;;;;;;28.67;11.85;;;;;;;-2.78;100.00;102626.53;6217324;23;20004;-64
2021/12/21 04:35:21;;;;;;;27.30;11.95;;;;;;;-2.76;100.00;102627.50;6217482;23;20008;-63
2021/12/21 04:37:56;;;;;;;30.42;12.50;;;;;;;-2.80;100.00;102622.97;6217354;23;20024;-65
2021/12/21 04:40:35;;;;;;;31.27;11.82;;;;;;;-2.82;100.00;102625.44;6217213;23;20066;-64
2021/12/21 04:43:00;;;;;;;32.03;12.48;;;;;;;-2.86;100.00;102627.66;6217364;23;20015;-62
2021/12/21 04:45:25;;;;;;;33.72;12.35;;;;;;;-2.93;100.00;102610.09;6219458;23;20024;-62
2021/12/21 04:47:51;;;;;;;27.92;12.70;;;;;;;-2.92;100.00;102614.41;6219504;23;20028;-64
2021/12/21 04:50:16;;;;;;;28.40;13.05;;;;;;;-2.89;100.00;102614.63;6219592;23;20409;-64
2021/12/21 04:52:41;;;;;;;28.52;12.40;;;;;;;-2.89;100.00;102614.63;6219614;23;20079;-63
2021/12/21 04:55:07;;;;;;;30.52;12.88;;;;;;;-2.86;100.00;102619.97;6219033;23;20376;-63
2021/12/21 04:57:32;;;;;;;32.67;12.43;;;;;;;-2.89;100.00;102619.75;6219289;23;20016;-65
2021/12/21 04:59:57;;;;;;;28.95;12.82;;;;;;;-2.93;100.00;102613.53;6218964;23;20019;-62
2021/12/21 05:02:23;;;;;;;27.55;12.40;;;;;;;-2.91;100.00;102614.53;6219222;23;20083;-62
2021/12/21 05:04:49;;;;;;;36.78;12.98;;;;;;;-2.90;100.00;102618.88;6219239;23;20008;-64
2021/12/21 05:07:21;;;;;;;33.97;13.32;;;;;;;-2.93;100.00;102625.44;6219200;23;20409;-64
2021/12/21 05:09:55;;;;;;;32.53;12.50;;;;;;;-2.97;100.00;102618.34;6219120;23;20039;-63
2021/12/21 05:12:21;;;;;;;26.98;12.25;;;;;;;-2.95;100.00;102621.91;6218967;23;20005;-63
2021/12/21 05:14:47;;;;;;;31.45;12.40;;;;;;;-2.95;100.00;102627.94;6219066;23;20004;-65
2021/12/21 05:17:12;;;;;;;29.85;12.25;;;;;;;-2.99;100.00;102619.91;6218982;23;20008;-62
2021/12/21 05:19:37;;;;;;;34.15;12.20;;;;;;;-2.98;100.00;102622.59;6219159;23;20012;-63
2021/12/21 05:22:03;;;;;;;33.85;13.27;;;;;;;-2.98;100.00;102622.59;6219273;23;20294;-64
2021/12/21 05:24:28;;;;;;;27.35;11.63;;;;;;;-3.04;100.00;102611.91;6218774;23;20447;-62
2021/12/21 05:26:53;;;;;;;31.90;12.55;;;;;;;-3.03;100.00;102613.69;6218861;23;20040;-65
2021/12/21 05:29:20;;;;;;;28.42;12.45;;;;;;;-3.06;100.00;102617.69;6218798;23;20398;-63
2021/12/21 05:31:45;;;;;;;28.95;12.63;;;;;;;-3.02;100.00;102627.38;6219094;23;19997;-61
2021/12/21 05:34:11;;;;;;;30.98;12.07;;;;;;;-3.03;100.00;102620.47;6219257;23;20015;-62
2021/12/21 05:36:36;;;;;;;32.50;13.05;;;;;;;-3.11;100.00;102622.50;6218555;23;20019;-63
2021/12/21 05:39:04;;;;;;;31.23;12.55;;;;;;;-3.07;100.00;102627.06;6218854;23;20028;-64
2021/12/21 05:41:47;;;;;;;31.55;12.68;;;;;;;-3.12;100.00;102619.84;6218447;23;20303;-63
2021/12/21 05:44:13;;;;;;;30.20;12.95;;;;;;;-3.12;100.00;102610.50;6219348;23;20024;-64
2021/12/21 05:46:39;;;;;;;26.80;12.35;;;;;;;-3.13;100.00;102612.94;6218809;23;20004;-64
2021/12/21 05:49:04;;;;;;;29.48;12.20;;;;;;;-3.13;100.00;102618.06;6218465;23;20092;-63
2021/12/21 05:51:29;;;;;;;30.70;12.55;;;;;;;-3.17;100.00;102625.53;6218851;23;20409;-64
2021/12/21 05:53:54;;;;;;;35.35;13.30;;;;;;;-3.15;100.00;102623.09;6218468;23;19996;-63
2021/12/21 05:56:20;;;;;;;33.28;13.98;;;;;;;-3.19;100.00;102624.53;6218753;23;20015;-63
2021/12/21 05:58:45;;;;;;;32.10;13.27;;;;;;;-3.20;100.00;102625.31;6218527;23;20012;-63
2021/12/21 06:01:10;;;;;;;30.38;13.20;;;;;;;-3.23;100.00;102617.41;6218582;23;20390;-64
2021/12/21 06:03:36;;;;;;;36.67;14.07;;;;;;;-3.21;100.00;102612.41;6218697;23;20090;-64
2021/12/21 06:06:01;;;;;;;34.17;12.75;;;;;;;-3.23;100.00;102612.28;6218095;23;20414;-64
2021/12/21 06:08:27;;;;;;;27.63;12.73;;;;;;;-3.22;100.00;102611.50;6218506;23;20011;-65
2021/12/21 06:10:55;;;;;;;32.67;12.38;;;;;;;-3.19;100.00;102618.53;6218748;23;20011;-65
2021/12/21 06:13:47;;;;;;;35.47;13.98;;;;;;;-3.22;100.00;102619.19;6218649;23;20005;-62
2021/12/21 06:27:10;;;;;;;31.20;12.73;;;;;;;-3.27;100.00;102620.53;6218099;23;20023;-64
2021/12/21 06:29:35;;;;;;;31.80;12.57;;;;;;;-3.30;100.00;102622.91;6218205;23;20009;-65
2021/12/21 06:32:01;;;;;;;32.00;13.48;;;;;;;-3.28;100.00;102625.53;6218516;23;20014;-63
2021/12/21 06:34:26;;;;;;;29.83;13.30;;;;;;;-3.36;100.00;102614.78;6218263;23;20008;-63
2021/12/21 06:36:52;;;;;;;31.67;12.65;;;;;;;-3.32;100.00;102616.78;6218069;23;20075;-64
2021/12/21 06:39:17;;;;;;;33.67;13.95;;;;;;;-3.30;100.00;102616.88;6218336;23;20009;-62
2021/12/21 06:41:43;;;;;;;32.75;13.02;;;;;;;-3.33;100.00;102614.09;6218339;23;20032;-63
2021/12/21 06:44:10;;;;;;;31.08;13.18;;;;;;;-3.33;100.00;102624.34;6217985;23;20096;-58
2021/12/21 06:46:54;;;;;;;31.20;12.85;;;;;;;-3.37;100.00;102623.22;6218734;23;20008;-65
2021/12/21 06:52:06;;;;;;;31.30;13.52;;;;;;;-3.39;100.00;102622.22;6217645;23;20074;-65
2021/12/21 06:54:31;;;;;;;28.80;12.95;;;;;;;-3.45;100.00;102621.78;6217130;23;20005;-65
2021/12/21 06:56:56;;;;;;;35.13;13.65;;;;;;;-3.43;100.00;102624.44;6217662;23;20011;-63
2021/12/21 06:59:22;;;;;;;30.30;13.65;;;;;;;-3.43;100.00;102617.66;6217691;23;20398;-63
2021/12/21 07:01:48;;;;;;;33.42;13.45;;;;;;;-3.47;100.00;102615.69;6217990;23;20063;-64
2021/12/21 07:04:17;;;;;;;29.23;12.93;;;;;;;-3.44;100.00;102620.09;6217720;23;20005;-64
2021/12/21 07:06:45;;;;;;;33.25;13.77;;;;;;;-3.47;100.00;102630.16;6217750;23;20013;-64
2021/12/21 07:11:51;;;;;;;27.85;12.50;;;;;;;-3.44;100.00;102628.69;6227438;23;20318;-65
2021/12/21 07:19:44;;;;;;;29.38;13.90;;;;;;;-3.59;100.00;102614.78;6217602;23;20027;-65
2021/12/21 07:22:10;;;;;;;30.83;12.95;;;;;;;-3.49;100.00;102635.16;6217481;23;20005;-65
2021/12/21 07:24:35;;;;;;;27.85;12.80;;;;;;;-3.50;100.00;102641.06;6217620;23;20333;-64
2021/12/21 07:27:00;;;;;;;31.55;13.55;;;;;;;-3.53;100.00;102636.59;6217771;23;20390;-64
2021/12/21 07:29:26;;;;;;;39.85;13.73;;;;;;;-3.51;100.00;102644.38;6217479;23;20028;-63
2021/12/21 07:31:52;;;;;;;34.58;13.95;;;;;;;-3.55;100.00;102638.16;6217602;23;20007;-63
2021/12/21 07:34:17;;;;;;;37.85;13.98;;;;;;;-3.59;100.00;102632.69;6217360;23;20009;-63
2021/12/21 07:36:43;;;;;;;32.53;13.30;;;;;;;-3.57;100.00;102638.81;6217444;23;20307;-63
2021/12/21 07:39:13;;;;;;;32.28;14.15;;;;;;;-3.56;100.00;102641.50;6217513;23;20019;-64
2021/12/21 07:41:39;;;;;;;28.92;13.40;;;;;;;-3.61;100.00;102630.03;6217274;23;20044;-64
2021/12/21 07:44:05;;;;;;;35.00;14.68;;;;;;;-3.68;100.00;102629.50;6217337;23;20013;-63
2021/12/21 07:46:30;;;;;;;32.70;13.45;;;;;;;-3.56;100.00;102638.94;6217050;23;20014;-61
2021/12/21 07:48:56;;;;;;;31.55;13.48;;;;;;;-3.55;100.00;102644.94;6217386;23;20271;-61
2021/12/21 07:51:21;;;;;;;39.47;14.90;;;;;;;-3.54;100.00;102650.16;6217322;23;20004;-63
2021/12/21 07:53:47;;;;;;;34.42;13.73;;;;;;;-3.55;100.00;102645.84;6217262;23;20307;-62
2021/12/21 07:56:14;;;;;;;35.40;13.98;;;;;;;-3.52;100.00;102648.63;6216909;23;20449;-63
2021/12/21 07:58:39;;;;;;;34.08;14.27;;;;;;;-3.53;100.00;102648.50;6217411;23;20017;-63
2021/12/21 08:01:06;;;;;;;32.88;14.18;;;;;;;-3.47;100.00;102658.31;6217019;23;20081;-62
2021/12/21 08:03:33;;;;;;;31.48;13.25;;;;;;;-3.54;100.00;102655.28;6217069;23;20040;-62
2021/12/21 08:06:00;;;;;;;35.28;14.15;;;;;;;-3.55;100.00;102652.63;6216959;23;20412;-64
2021/12/21 08:08:30;;;;;;;31.00;14.35;;;;;;;-3.54;100.00;102656.97;6217692;23;20058;-63
2021/12/21 08:11:29;;;;;;;32.85;14.63;;;;;;;-3.52;100.00;102660.53;6216997;23;20091;-65
2021/12/21 08:13:44;;;;;;;35.85;13.55;;;;;;;-3.55;100.00;102657.75;6216507;23;20012;-65
2021/12/21 08:16:11;;;;;;;29.50;14.35;;;;;;;-3.55;100.00;102650.06;6217410;23;20016;-64
2021/12/21 08:18:36;;;;;;;36.35;15.13;;;;;;;-3.47;100.00;102656.63;6218161;23;20004;-65
2021/12/21 08:21:02;;;;;;;37.58;14.75;;;;;;;-3.47;100.00;102656.63;6219418;23;20016;-65
2021/12/21 08:23:28;;;;;;;35.67;14.40;;;;;;;-3.42;100.00;102660.41;6219618;23;20429;-64
2021/12/21 08:25:54;;;;;;;33.58;14.85;;;;;;;-3.40;100.00;102655.38;6219358;23;20106;-64
2021/12/21 08:28:20;;;;;;;29.25;13.82;;;;;;;-3.40;100.00;102651.16;6218739;23;20005;-63
2021/12/21 08:30:45;;;;;;;33.22;14.05;;;;;;;-3.36;100.00;102650.59;6219154;23;20302;-65
2021/12/21 08:33:10;;;;;;;34.08;14.27;;;;;;;-3.38;100.00;102649.59;6219598;23;20345;-63
2021/12/21 08:35:36;;;;;;;37.10;14.73;;;;;;;-3.39;100.00;102646.94;6219167;23;20005;-65
2021/12/21 08:38:06;;;;;;;37.08;15.10;;;;;;;-3.33;100.00;102642.25;6219247;23;20024;-64
2021/12/21 08:40:38;;;;;;;39.40;14.82;;;;;;;-3.36;100.00;102634.34;6218006;23;20452;-68
2021/12/21 08:43:09;;;;;;;42.28;14.70;;;;;;;-3.25;100.00;102647.13;6218220;23;20040;-64
2021/12/21 08:45:37;;;;;;;31.98;15.02;;;;;;;-3.22;100.00;102647.34;6218722;23;20016;-63
2021/12/21 08:48:04;;;;;;;38.17;14.20;;;;;;;-3.25;100.00;102657.38;6218759;23;20084;-63
2021/12/21 08:50:30;;;;;;;35.63;14.27;;;;;;;-3.22;100.00;102664.38;6218483;23;20008;-64
2021/12/21 08:52:57;;;;;;;35.40;14.23;;;;;;;-3.24;100.00;102651.47;6218520;23;20051;-64
2021/12/21 08:55:22;;;;;;;35.55;15.45;;;;;;;-3.17;100.00;102660.47;6218113;23;20008;-64
2021/12/21 08:57:47;;;;;;;35.75;15.55;;;;;;;-3.11;100.00;102660.91;6218306;23;20142;-64
2021/12/21 09:00:13;;;;;;;43.30;15.55;;;;;;;-3.07;100.00;102655.22;6218167;23;20425;-64
2021/12/21 09:02:39;;;;;;;32.78;15.38;;;;;;;-3.03;100.00;102649.53;6218490;23;20012;-64
2021/12/21 09:05:11;;;;;;;38.55;16.55;;;;;;;-2.96;100.00;102658.56;6218510;23;20072;-63
2021/12/21 09:07:36;;;;;;;;;;;;;;;-2.90;100.00;102664.97;6218984;23;20026;-64
2021/12/21 09:10:04;;;;;;;30.38;15.50;;;;;;;-2.85;100.00;102668.75;6218543;23;20274;-67
2021/12/21 09:12:29;;;;;;;35.40;17.35;;;;;;;-2.83;100.00;102666.31;6215900;23;20009;-64
2021/12/21 09:14:54;;;;;;;40.10;18.30;;;;;;;-2.76;100.00;102665.94;6217690;23;20004;-64
2021/12/21 09:17:19;;;;;;;40.08;17.90;;;;;;;-2.70;100.00;102668.03;6218659;23;20009;-65
2021/12/21 09:19:45;;;;;;;37.13;17.98;;;;;;;-2.61;100.00;102663.56;6218418;23;20009;-63
2021/12/21 09:22:10;;;;;;;41.17;18.63;;;;;;;-2.55;100.00;102664.84;6218538;23;20294;-63
2021/12/21 09:24:36;;;;;;;40.85;18.08;;;;;;;-2.47;100.00;102667.97;6218574;23;20074;-66
2021/12/21 09:27:01;;;;;;;47.38;20.45;;;;;;;-2.42;100.00;102670.84;6218838;23;20107;-63
2021/12/21 09:29:26;;;;;;;43.70;21.27;;;;;;;-2.31;100.00;102669.88;6218077;23;20000;-65
2021/12/21 09:31:51;;;;;;;45.10;21.17;;;;;;;-2.28;100.00;102659.84;6217806;23;20028;-64
2021/12/21 09:34:17;;;;;;;56.03;27.35;;;;;;;-2.24;100.00;102661.81;6218621;23;20016;-66
2021/12/21 09:36:42;;;;;;;57.72;29.70;;;;;;;-2.17;100.00;102664.88;6218472;23;20028;-64
2021/12/21 09:39:07;;;;;;;51.42;27.48;;;;;;;-2.14;100.00;102659.09;6218524;23;20406;-64
2021/12/21 09:41:33;;;;;;;52.05;27.02;;;;;;;-2.09;100.00;102662.84;6215779;23;20020;-63
2021/12/21 09:44:00;;;;;;;46.45;25.10;;;;;;;-2.02;100.00;102657.31;6217651;23;20434;-63
2021/12/21 09:46:25;;;;;;;41.33;24.77;;;;;;;-1.91;100.00;102666.63;6218554;23;20005;-65
2021/12/21 09:48:50;;;;;;;46.85;24.40;;;;;;;-1.85;100.00;102658.44;6218421;23;20310;-63
2021/12/21 09:51:16;;;;;;;47.13;25.20;;;;;;;-1.80;100.00;102657.06;6218206;23;20055;-63
2021/12/21 09:53:42;;;;;;;49.15;23.67;;;;;;;-1.69;100.00;102660.31;6218050;23;20521;-63
2021/12/21 09:56:08;;;;;;;42.97;23.90;;;;;;;-1.70;100.00;102650.84;6217909;23;20345;-64
2021/12/21 09:58:34;;;;;;;41.78;19.80;;;;;;;-1.59;100.00;102637.94;6218086;23;20005;-65
2021/12/21 10:00:59;;;;;;;40.63;20.27;;;;;;;-1.42;100.00;102657.00;6218629;23;20036;-63
2021/12/21 10:03:24;;;;;;;42.65;18.80;;;;;;;-1.34;100.00;102648.06;6218373;23;20015;-63
2021/12/21 10:06:01;;;;;;;39.20;18.27;;;;;;;-1.22;100.00;102653.13;6217633;23;20067;-63
2021/12/21 10:08:30;;;;;;;33.05;16.50;;;;;;;-1.13;100.00;102635.72;6217787;23;20008;-64
2021/12/21 10:10:56;;;;;;;37.63;17.10;;;;;;;-1.03;100.00;102637.16;6218177;23;20091;-64
2021/12/21 10:13:25;;;;;;;33.60;16.83;;;;;;;-0.94;100.00;102632.59;6218201;23;20346;-63
2021/12/21 10:16:02;;;;;;;29.95;15.77;;;;;;;-0.97;100.00;102611.84;6218327;23;20005;-64
2021/12/21 10:18:29;;;;;;;33.97;16.38;;;;;;;-0.69;100.00;102642.72;6218261;23;20004;-65
2021/12/21 10:20:58;;;;;;;34.72;16.77;;;;;;;-0.59;100.00;102637.31;6217896;23;20067;-65
2021/12/21 10:23:27;;;;;;;34.63;17.02;;;;;;;-0.47;100.00;102644.09;6218420;23;20094;-66
2021/12/21 10:25:59;;;;;;;31.38;15.98;;;;;;;-0.39;100.00;102640.31;6218231;23;20008;-65
2021/12/21 10:28:44;;;;;;;30.17;15.88;;;;;;;-0.38;100.00;102610.31;6218366;23;20134;-66
2021/12/21 10:31:12;;;;;;;28.73;15.48;;;;;;;-0.15;100.00;102621.94;6218097;23;20012;-64
2021/12/21 10:33:40;;;;;;;28.38;13.60;;;;;;;-0.04;98.90;102620.91;6217519;23;20031;-65
2021/12/21 10:36:07;;;;;;;26.58;13.85;;;;;;;0.03;99.03;102623.00;6218161;23;20013;-66
2021/12/21 10:39:07;;;;;;;26.00;14.23;;;;;;;0.10;98.27;102611.41;6215212;23;20009;-64
2021/12/21 10:41:44;;;;;;;28.65;13.48;;;;;;;0.17;98.16;102606.69;6216970;23;20005;-66
2021/12/21 10:44:16;;;;;;;24.60;13.00;;;;;;;0.22;96.72;102614.66;6217531;23;20039;-66
2021/12/21 10:46:43;;;;;;;27.05;12.57;;;;;;;0.31;97.90;102610.94;6217679;23;20406;-65
2021/12/21 10:49:13;;;;;;;21.95;12.20;;;;;;;0.42;97.02;102616.66;6217807;23;20009;-66
2021/12/21 10:52:07;;;;;;;22.02;10.68;;;;;;;0.49;95.40;102612.75;6217457;23;20402;-65
2021/12/21 10:54:34;;;;;;;22.33;11.30;;;;;;;0.55;95.12;102615.66;6217462;23;20428;-66
2021/12/21 10:57:04;;;;;;;21.92;10.70;;;;;;;0.62;94.92;102616.09;6217659;23;20035;-67
2021/12/21 10:59:34;;;;;;;18.27;10.27;;;;;;;0.69;92.49;102612.19;6217975;23;20087;-62
2021/12/21 11:02:06;;;;;;;21.23;10.32;;;;;;;0.81;92.59;102611.97;6217452;23;20441;-64
2021/12/21 11:04:43;;;;;;;17.75;10.23;;;;;;;0.89;92.14;102613.25;6217769;23;20004;-65
2021/12/21 11:07:21;;;;;;;22.58;10.43;;;;;;;0.96;91.70;102602.47;6217341;23;20399;-66
2021/12/21 11:09:58;;;;;;;18.40;10.40;;;;;;;1.07;91.17;102611.66;6217721;23;20017;-64
2021/12/21 11:12:27;;;;;;;16.90;9.70;;;;;;;1.13;91.38;102608.53;6217904;23;20009;-66
2021/12/21 11:14:54;;;;;;;21.50;9.95;;;;;;;1.18;89.88;102612.25;6216980;23;20417;-64
2021/12/21 11:17:21;;;;;;;18.45;9.95;;;;;;;1.21;90.78;102607.25;6216815;23;20051;-66
2021/12/21 11:19:46;;;;;;;19.30;8.95;;;;;;;1.23;88.97;102600.44;6217536;23;20005;-65
2021/12/21 11:22:12;;;;;;;20.92;9.57;;;;;;;1.33;88.81;102608.78;6217666;23;20074;-66
2021/12/21 11:24:39;;;;;;;19.63;9.85;;;;;;;1.39;88.40;102603.91;6217669;23;20032;-66
2021/12/21 11:27:04;;;;;;;21.90;10.00;;;;;;;1.42;87.20;102592.88;6217700;23;20355;-65
2021/12/21 11:29:31;;;;;;;19.23;9.80;;;;;;;1.48;88.97;102588.03;6217666;23;20036;-64
2021/12/21 11:32:01;;;;;;;19.42;10.07;;;;;;;1.52;88.47;102584.81;6216793;23;20015;-65
2021/12/21 11:34:31;;;;;;;20.80;10.63;;;;;;;1.58;87.81;102579.06;6217568;23;20001;-66
2021/12/21 11:39:41;;;;;;;23.40;9.60;;;;;;;1.74;87.79;102545.47;6217104;23;20096;-64
2021/12/21 11:42:17;;;;;;;17.08;9.38;;;;;;;1.82;86.71;102544.19;6217461;23;20088;-65
2021/12/21 11:44:42;;;;;;;17.02;8.68;;;;;;;1.87;84.77;102545.31;6216468;23;20009;-64
2021/12/21 11:47:12;;;;;;;20.80;9.87;;;;;;;1.91;84.65;102547.19;6217534;23;20012;-64
2021/12/21 11:49:45;;;;;;;18.00;9.52;;;;;;;1.96;84.44;102552.59;6217001;23;20718;-63
2021/12/21 11:52:16;;;;;;;19.58;9.52;;;;;;;1.97;84.00;102554.38;6217528;23;20005;-66
2021/12/21 11:54:46;;;;;;;22.38;9.80;;;;;;;2.01;85.61;102551.13;6217093;23;20039;-66
2021/12/21 11:57:11;;;;;;;18.20;9.60;;;;;;;2.02;84.47;102551.19;6216894;23;20004;-66
2021/12/21 11:59:37;;;;;;;17.73;8.70;;;;;;;1.94;85.06;102539.59;6216954;23;20020;-65
2021/12/21 12:02:04;;;;;;;17.38;9.52;;;;;;;1.98;83.98;102543.22;6216886;23;20008;-67
2021/12/21 12:04:30;;;;;;;16.35;8.73;;;;;;;2.05;84.88;102543.63;6217011;23;20051;-65